sensor_id;sensor_type;location;lat;lon;timestamp;P1;durP1;ratioP1;P2;durP2;ratioP2
41875;SDS011;27555;50.808;4.402;2022-10-16T00:00:43;1.35;;;0.60;;
41875;SDS011;27555;50.808;4.402;2022-10-16T00:03:09;2.33;;;0.80;;
41875;SDS011;27555;50.808;4.402;2022-10-16T00:05:38;1.63;;;0.57;;
41875;SDS011;27555;50.808;4.402;2022-10-16T00:08:06;1.58;;;1.02;;
41875;SDS011;27555;50.808;4.402;2022-10-16T00:10:33;4.93;;;1.63;;
41875;SDS011;27555;50.808;4.402;2022-10-16T00:12:59;2.35;;;1.00;;
41875;SDS011;27555;50.808;4.402;2022-10-16T00:15:24;3.90;;;1.48;;
41875;SDS011;27555;50.808;4.402;2022-10-16T00:17:50;5.82;;;0.90;;
41875;SDS011;27555;50.808;4.402;2022-10-16T00:20:15;3.00;;;0.95;;
41875;SDS011;27555;50.808;4.402;2022-10-16T00:22:41;2.67;;;0.70;;
41875;SDS011;27555;50.808;4.402;2022-10-16T00:25:06;2.83;;;0.85;;
41875;SDS011;27555;50.808;4.402;2022-10-16T00:27:33;4.18;;;0.60;;
41875;SDS011;27555;50.808;4.402;2022-10-16T00:29:59;5.95;;;1.02;;
41875;SDS011;27555;50.808;4.402;2022-10-16T00:32:25;1.30;;;0.82;;
41875;SDS011;27555;50.808;4.402;2022-10-16T00:34:50;3.47;;;0.88;;
41875;SDS011;27555;50.808;4.402;2022-10-16T00:37:19;3.00;;;0.85;;
41875;SDS011;27555;50.808;4.402;2022-10-16T00:39:45;5.85;;;0.70;;
41875;SDS011;27555;50.808;4.402;2022-10-16T00:42:14;2.00;;;0.93;;
41875;SDS011;27555;50.808;4.402;2022-10-16T00:44:43;2.45;;;0.98;;
41875;SDS011;27555;50.808;4.402;2022-10-16T00:47:28;2.10;;;0.80;;
41875;SDS011;27555;50.808;4.402;2022-10-16T00:50:18;3.00;;;0.77;;
41875;SDS011;27555;50.808;4.402;2022-10-16T00:52:53;4.43;;;0.60;;
41875;SDS011;27555;50.808;4.402;2022-10-16T00:55:20;1.45;;;0.80;;
41875;SDS011;27555;50.808;4.402;2022-10-16T00:57:48;3.00;;;0.80;;
41875;SDS011;27555;50.808;4.402;2022-10-16T01:00:17;1.55;;;0.75;;
41875;SDS011;27555;50.808;4.402;2022-10-16T01:02:51;6.03;;;0.90;;
41875;SDS011;27555;50.808;4.402;2022-10-16T01:05:17;4.75;;;0.65;;
41875;SDS011;27555;50.808;4.402;2022-10-16T01:07:56;1.55;;;0.93;;
41875;SDS011;27555;50.808;4.402;2022-10-16T01:10:54;1.83;;;1.00;;
41875;SDS011;27555;50.808;4.402;2022-10-16T01:13:27;1.60;;;0.68;;
41875;SDS011;27555;50.808;4.402;2022-10-16T01:18:43;3.65;;;0.90;;
41875;SDS011;27555;50.808;4.402;2022-10-16T01:21:33;3.88;;;1.45;;
41875;SDS011;27555;50.808;4.402;2022-10-16T01:27:00;1.38;;;0.82;;
41875;SDS011;27555;50.808;4.402;2022-10-16T01:32:33;3.38;;;0.60;;
41875;SDS011;27555;50.808;4.402;2022-10-16T01:35:05;2.05;;;0.60;;
41875;SDS011;27555;50.808;4.402;2022-10-16T01:37:40;3.35;;;0.93;;
41875;SDS011;27555;50.808;4.402;2022-10-16T01:40:14;1.75;;;0.77;;
41875;SDS011;27555;50.808;4.402;2022-10-16T01:42:44;4.32;;;1.45;;
41875;SDS011;27555;50.808;4.402;2022-10-16T01:45:15;3.17;;;0.75;;
41875;SDS011;27555;50.808;4.402;2022-10-16T01:47:44;1.30;;;0.80;;
41875;SDS011;27555;50.808;4.402;2022-10-16T01:50:11;3.05;;;0.88;;
41875;SDS011;27555;50.808;4.402;2022-10-16T01:52:40;5.68;;;1.40;;
41875;SDS011;27555;50.808;4.402;2022-10-16T01:55:09;2.45;;;0.90;;
41875;SDS011;27555;50.808;4.402;2022-10-16T01:57:37;3.70;;;0.95;;
41875;SDS011;27555;50.808;4.402;2022-10-16T02:00:09;1.52;;;0.65;;
41875;SDS011;27555;50.808;4.402;2022-10-16T02:02:39;2.88;;;1.15;;
41875;SDS011;27555;50.808;4.402;2022-10-16T02:05:18;1.80;;;0.60;;
41875;SDS011;27555;50.808;4.402;2022-10-16T02:07:57;6.40;;;1.25;;
41875;SDS011;27555;50.808;4.402;2022-10-16T02:10:23;5.55;;;1.08;;
41875;SDS011;27555;50.808;4.402;2022-10-16T02:13:10;5.90;;;0.93;;
41875;SDS011;27555;50.808;4.402;2022-10-16T02:15:39;1.75;;;0.70;;
41875;SDS011;27555;50.808;4.402;2022-10-16T02:18:06;5.47;;;1.10;;
41875;SDS011;27555;50.808;4.402;2022-10-16T02:20:36;2.35;;;1.00;;
41875;SDS011;27555;50.808;4.402;2022-10-16T02:23:14;1.45;;;0.65;;
41875;SDS011;27555;50.808;4.402;2022-10-16T02:25:48;3.38;;;1.08;;
41875;SDS011;27555;50.808;4.402;2022-10-16T02:28:27;4.05;;;1.08;;
41875;SDS011;27555;50.808;4.402;2022-10-16T02:31:03;2.13;;;0.80;;
41875;SDS011;27555;50.808;4.402;2022-10-16T02:33:31;4.80;;;1.52;;
41875;SDS011;27555;50.808;4.402;2022-10-16T02:35:58;3.08;;;1.02;;
41875;SDS011;27555;50.808;4.402;2022-10-16T02:38:24;3.28;;;0.98;;
41875;SDS011;27555;50.808;4.402;2022-10-16T02:40:51;1.73;;;1.00;;
41875;SDS011;27555;50.808;4.402;2022-10-16T02:43:17;6.05;;;0.98;;
41875;SDS011;27555;50.808;4.402;2022-10-16T02:45:44;1.80;;;0.90;;
41875;SDS011;27555;50.808;4.402;2022-10-16T02:48:09;4.70;;;1.27;;
41875;SDS011;27555;50.808;4.402;2022-10-16T02:50:35;4.05;;;0.95;;
41875;SDS011;27555;50.808;4.402;2022-10-16T02:53:01;2.42;;;1.02;;
41875;SDS011;27555;50.808;4.402;2022-10-16T02:55:26;4.40;;;1.50;;
41875;SDS011;27555;50.808;4.402;2022-10-16T02:57:53;5.28;;;1.60;;
41875;SDS011;27555;50.808;4.402;2022-10-16T03:00:19;5.38;;;1.23;;
41875;SDS011;27555;50.808;4.402;2022-10-16T03:02:45;1.50;;;0.90;;
41875;SDS011;27555;50.808;4.402;2022-10-16T03:05:12;3.35;;;1.20;;
41875;SDS011;27555;50.808;4.402;2022-10-16T03:07:39;1.25;;;0.93;;
41875;SDS011;27555;50.808;4.402;2022-10-16T03:10:05;10.27;;;1.70;;
41875;SDS011;27555;50.808;4.402;2022-10-16T03:12:31;3.05;;;1.27;;
41875;SDS011;27555;50.808;4.402;2022-10-16T03:14:57;5.35;;;1.20;;
41875;SDS011;27555;50.808;4.402;2022-10-16T03:17:23;1.88;;;1.02;;
41875;SDS011;27555;50.808;4.402;2022-10-16T03:19:49;1.50;;;1.35;;
41875;SDS011;27555;50.808;4.402;2022-10-16T03:22:16;12.95;;;1.73;;
41875;SDS011;27555;50.808;4.402;2022-10-16T03:24:42;4.88;;;1.20;;
41875;SDS011;27555;50.808;4.402;2022-10-16T03:27:08;4.30;;;1.15;;
41875;SDS011;27555;50.808;4.402;2022-10-16T03:29:34;3.33;;;1.00;;
41875;SDS011;27555;50.808;4.402;2022-10-16T03:32:00;4.05;;;1.15;;
41875;SDS011;27555;50.808;4.402;2022-10-16T03:34:26;3.75;;;1.25;;
41875;SDS011;27555;50.808;4.402;2022-10-16T03:36:52;2.22;;;0.88;;
41875;SDS011;27555;50.808;4.402;2022-10-16T03:39:17;2.08;;;1.08;;
41875;SDS011;27555;50.808;4.402;2022-10-16T03:41:43;4.03;;;1.23;;
41875;SDS011;27555;50.808;4.402;2022-10-16T03:44:09;3.85;;;1.45;;
41875;SDS011;27555;50.808;4.402;2022-10-16T03:46:34;2.22;;;1.40;;
41875;SDS011;27555;50.808;4.402;2022-10-16T03:49:00;6.47;;;1.20;;
41875;SDS011;27555;50.808;4.402;2022-10-16T03:51:27;3.88;;;1.40;;
41875;SDS011;27555;50.808;4.402;2022-10-16T03:53:52;1.65;;;1.25;;
41875;SDS011;27555;50.808;4.402;2022-10-16T03:56:18;3.53;;;1.15;;
41875;SDS011;27555;50.808;4.402;2022-10-16T03:58:43;3.63;;;1.10;;
41875;SDS011;27555;50.808;4.402;2022-10-16T04:01:09;2.95;;;1.33;;
41875;SDS011;27555;50.808;4.402;2022-10-16T04:03:35;7.72;;;1.92;;
41875;SDS011;27555;50.808;4.402;2022-10-16T04:06:00;5.60;;;1.30;;
41875;SDS011;27555;50.808;4.402;2022-10-16T04:08:26;7.10;;;1.58;;
41875;SDS011;27555;50.808;4.402;2022-10-16T04:10:51;4.57;;;1.00;;
41875;SDS011;27555;50.808;4.402;2022-10-16T04:13:17;3.38;;;1.10;;
41875;SDS011;27555;50.808;4.402;2022-10-16T04:15:44;4.63;;;1.27;;
41875;SDS011;27555;50.808;4.402;2022-10-16T04:18:09;3.83;;;1.52;;
41875;SDS011;27555;50.808;4.402;2022-10-16T04:20:35;15.77;;;1.65;;
41875;SDS011;27555;50.808;4.402;2022-10-16T04:23:01;6.40;;;1.40;;
41875;SDS011;27555;50.808;4.402;2022-10-16T04:25:26;1.85;;;0.80;;
41875;SDS011;27555;50.808;4.402;2022-10-16T04:27:54;1.95;;;1.00;;
41875;SDS011;27555;50.808;4.402;2022-10-16T04:30:20;3.67;;;0.93;;
41875;SDS011;27555;50.808;4.402;2022-10-16T04:32:47;3.08;;;1.30;;
41875;SDS011;27555;50.808;4.402;2022-10-16T04:35:14;12.50;;;1.88;;
41875;SDS011;27555;50.808;4.402;2022-10-16T04:37:41;4.38;;;1.33;;
41875;SDS011;27555;50.808;4.402;2022-10-16T04:40:06;5.07;;;1.20;;
41875;SDS011;27555;50.808;4.402;2022-10-16T04:42:33;3.67;;;1.25;;
41875;SDS011;27555;50.808;4.402;2022-10-16T04:44:59;4.03;;;1.27;;
41875;SDS011;27555;50.808;4.402;2022-10-16T04:47:26;4.95;;;1.40;;
41875;SDS011;27555;50.808;4.402;2022-10-16T04:49:52;4.28;;;1.33;;
41875;SDS011;27555;50.808;4.402;2022-10-16T04:52:17;6.15;;;0.90;;
41875;SDS011;27555;50.808;4.402;2022-10-16T04:54:44;4.50;;;1.30;;
41875;SDS011;27555;50.808;4.402;2022-10-16T04:57:10;4.72;;;1.33;;
41875;SDS011;27555;50.808;4.402;2022-10-16T04:59:36;4.32;;;1.35;;
41875;SDS011;27555;50.808;4.402;2022-10-16T05:02:04;7.07;;;1.88;;
41875;SDS011;27555;50.808;4.402;2022-10-16T05:04:30;6.80;;;1.50;;
41875;SDS011;27555;50.808;4.402;2022-10-16T05:06:59;4.07;;;1.15;;
41875;SDS011;27555;50.808;4.402;2022-10-16T05:09:24;6.20;;;1.40;;
41875;SDS011;27555;50.808;4.402;2022-10-16T05:11:52;5.25;;;1.65;;
41875;SDS011;27555;50.808;4.402;2022-10-16T05:14:18;4.22;;;1.48;;
41875;SDS011;27555;50.808;4.402;2022-10-16T05:16:44;6.63;;;0.90;;
41875;SDS011;27555;50.808;4.402;2022-10-16T05:19:12;4.20;;;1.48;;
41875;SDS011;27555;50.808;4.402;2022-10-16T05:21:38;2.97;;;1.33;;
41875;SDS011;27555;50.808;4.402;2022-10-16T05:24:04;6.25;;;1.25;;
41875;SDS011;27555;50.808;4.402;2022-10-16T05:26:30;6.72;;;1.75;;
41875;SDS011;27555;50.808;4.402;2022-10-16T05:28:55;4.38;;;1.58;;
41875;SDS011;27555;50.808;4.402;2022-10-16T05:31:21;3.70;;;1.67;;
41875;SDS011;27555;50.808;4.402;2022-10-16T05:33:46;2.95;;;1.13;;
41875;SDS011;27555;50.808;4.402;2022-10-16T05:36:12;4.45;;;1.25;;
41875;SDS011;27555;50.808;4.402;2022-10-16T05:38:37;3.88;;;1.52;;
41875;SDS011;27555;50.808;4.402;2022-10-16T05:41:04;4.53;;;1.80;;
41875;SDS011;27555;50.808;4.402;2022-10-16T05:43:30;5.68;;;1.50;;
41875;SDS011;27555;50.808;4.402;2022-10-16T05:45:57;6.05;;;1.83;;
41875;SDS011;27555;50.808;4.402;2022-10-16T05:48:23;3.78;;;1.52;;
41875;SDS011;27555;50.808;4.402;2022-10-16T05:51:00;5.13;;;1.70;;
41875;SDS011;27555;50.808;4.402;2022-10-16T05:53:31;5.53;;;1.23;;
41875;SDS011;27555;50.808;4.402;2022-10-16T05:55:58;8.18;;;1.65;;
41875;SDS011;27555;50.808;4.402;2022-10-16T05:58:24;1.92;;;1.50;;
41875;SDS011;27555;50.808;4.402;2022-10-16T06:00:58;3.15;;;1.70;;
41875;SDS011;27555;50.808;4.402;2022-10-16T06:03:35;4.75;;;1.38;;
41875;SDS011;27555;50.808;4.402;2022-10-16T06:06:09;4.85;;;1.63;;
41875;SDS011;27555;50.808;4.402;2022-10-16T06:08:36;7.03;;;1.85;;
41875;SDS011;27555;50.808;4.402;2022-10-16T06:11:04;7.07;;;1.40;;
41875;SDS011;27555;50.808;4.402;2022-10-16T06:13:31;4.68;;;1.60;;
41875;SDS011;27555;50.808;4.402;2022-10-16T06:15:58;10.18;;;1.58;;
41875;SDS011;27555;50.808;4.402;2022-10-16T06:18:25;13.43;;;2.13;;
41875;SDS011;27555;50.808;4.402;2022-10-16T06:20:51;11.73;;;2.22;;
41875;SDS011;27555;50.808;4.402;2022-10-16T06:23:17;3.70;;;1.80;;
41875;SDS011;27555;50.808;4.402;2022-10-16T06:25:42;7.20;;;1.88;;
41875;SDS011;27555;50.808;4.402;2022-10-16T06:28:08;6.72;;;1.92;;
41875;SDS011;27555;50.808;4.402;2022-10-16T06:30:33;4.45;;;1.13;;
41875;SDS011;27555;50.808;4.402;2022-10-16T06:32:59;4.47;;;1.70;;
41875;SDS011;27555;50.808;4.402;2022-10-16T06:35:24;8.10;;;1.88;;
41875;SDS011;27555;50.808;4.402;2022-10-16T06:37:52;11.10;;;1.65;;
41875;SDS011;27555;50.808;4.402;2022-10-16T06:40:17;4.65;;;1.23;;
41875;SDS011;27555;50.808;4.402;2022-10-16T06:42:43;4.28;;;1.60;;
41875;SDS011;27555;50.808;4.402;2022-10-16T06:45:09;5.40;;;1.67;;
41875;SDS011;27555;50.808;4.402;2022-10-16T06:47:36;2.05;;;1.50;;
41875;SDS011;27555;50.808;4.402;2022-10-16T06:50:03;6.10;;;1.42;;
41875;SDS011;27555;50.808;4.402;2022-10-16T06:52:31;7.20;;;1.30;;
41875;SDS011;27555;50.808;4.402;2022-10-16T06:54:58;4.05;;;1.55;;
41875;SDS011;27555;50.808;4.402;2022-10-16T06:57:23;6.28;;;1.70;;
41875;SDS011;27555;50.808;4.402;2022-10-16T06:59:49;6.30;;;1.35;;
41875;SDS011;27555;50.808;4.402;2022-10-16T07:02:14;4.55;;;1.52;;
41875;SDS011;27555;50.808;4.402;2022-10-16T07:04:40;6.10;;;1.30;;
41875;SDS011;27555;50.808;4.402;2022-10-16T07:07:05;6.40;;;0.93;;
41875;SDS011;27555;50.808;4.402;2022-10-16T07:09:31;2.95;;;1.00;;
41875;SDS011;27555;50.808;4.402;2022-10-16T07:11:56;4.18;;;1.00;;
41875;SDS011;27555;50.808;4.402;2022-10-16T07:14:22;2.17;;;1.10;;
41875;SDS011;27555;50.808;4.402;2022-10-16T07:16:48;3.85;;;1.98;;
41875;SDS011;27555;50.808;4.402;2022-10-16T07:19:14;2.85;;;1.17;;
41875;SDS011;27555;50.808;4.402;2022-10-16T07:21:42;3.25;;;1.70;;
41875;SDS011;27555;50.808;4.402;2022-10-16T07:24:12;1.60;;;0.75;;
41875;SDS011;27555;50.808;4.402;2022-10-16T07:26:40;5.10;;;1.55;;
41875;SDS011;27555;50.808;4.402;2022-10-16T07:29:06;3.95;;;0.95;;
41875;SDS011;27555;50.808;4.402;2022-10-16T07:31:43;4.40;;;0.98;;
41875;SDS011;27555;50.808;4.402;2022-10-16T07:34:10;3.42;;;1.48;;
41875;SDS011;27555;50.808;4.402;2022-10-16T07:36:36;2.45;;;1.05;;
41875;SDS011;27555;50.808;4.402;2022-10-16T07:39:03;4.70;;;0.82;;
41875;SDS011;27555;50.808;4.402;2022-10-16T07:41:29;3.35;;;0.85;;
41875;SDS011;27555;50.808;4.402;2022-10-16T07:43:55;3.78;;;1.33;;
41875;SDS011;27555;50.808;4.402;2022-10-16T07:46:23;3.65;;;1.00;;
41875;SDS011;27555;50.808;4.402;2022-10-16T07:48:49;6.13;;;1.23;;
41875;SDS011;27555;50.808;4.402;2022-10-16T07:51:16;2.63;;;0.98;;
41875;SDS011;27555;50.808;4.402;2022-10-16T07:53:43;2.63;;;1.05;;
41875;SDS011;27555;50.808;4.402;2022-10-16T07:56:09;8.00;;;1.25;;
41875;SDS011;27555;50.808;4.402;2022-10-16T07:58:35;5.63;;;1.00;;
41875;SDS011;27555;50.808;4.402;2022-10-16T08:01:08;1.48;;;0.75;;
41875;SDS011;27555;50.808;4.402;2022-10-16T08:03:35;3.08;;;1.00;;
41875;SDS011;27555;50.808;4.402;2022-10-16T08:06:01;2.92;;;1.00;;
41875;SDS011;27555;50.808;4.402;2022-10-16T08:08:27;2.42;;;1.00;;
41875;SDS011;27555;50.808;4.402;2022-10-16T08:10:53;6.82;;;1.50;;
41875;SDS011;27555;50.808;4.402;2022-10-16T08:13:19;4.35;;;0.90;;
41875;SDS011;27555;50.808;4.402;2022-10-16T08:15:45;5.63;;;0.90;;
41875;SDS011;27555;50.808;4.402;2022-10-16T08:18:11;4.13;;;1.10;;
41875;SDS011;27555;50.808;4.402;2022-10-16T08:20:38;4.30;;;1.05;;
41875;SDS011;27555;50.808;4.402;2022-10-16T08:23:05;4.88;;;0.93;;
41875;SDS011;27555;50.808;4.402;2022-10-16T08:25:31;4.50;;;1.08;;
41875;SDS011;27555;50.808;4.402;2022-10-16T08:28:00;4.93;;;1.02;;
41875;SDS011;27555;50.808;4.402;2022-10-16T08:30:27;4.25;;;1.10;;
41875;SDS011;27555;50.808;4.402;2022-10-16T08:32:53;3.25;;;0.90;;
41875;SDS011;27555;50.808;4.402;2022-10-16T08:35:19;5.30;;;1.00;;
41875;SDS011;27555;50.808;4.402;2022-10-16T08:37:44;3.13;;;0.77;;
41875;SDS011;27555;50.808;4.402;2022-10-16T08:40:16;3.67;;;1.10;;
41875;SDS011;27555;50.808;4.402;2022-10-16T08:45:36;7.88;;;1.42;;
41875;SDS011;27555;50.808;4.402;2022-10-16T08:48:28;4.50;;;1.00;;
41875;SDS011;27555;50.808;4.402;2022-10-16T08:51:01;6.47;;;1.40;;
41875;SDS011;27555;50.808;4.402;2022-10-16T08:53:36;9.60;;;1.10;;
41875;SDS011;27555;50.808;4.402;2022-10-16T08:56:08;7.20;;;1.58;;
41875;SDS011;27555;50.808;4.402;2022-10-16T08:58:33;3.58;;;0.90;;
41875;SDS011;27555;50.808;4.402;2022-10-16T09:01:00;4.75;;;1.00;;
41875;SDS011;27555;50.808;4.402;2022-10-16T09:09:11;6.68;;;1.70;;
41875;SDS011;27555;50.808;4.402;2022-10-16T09:19:51;5.95;;;1.10;;
41875;SDS011;27555;50.808;4.402;2022-10-16T09:22:22;4.60;;;0.98;;
41875;SDS011;27555;50.808;4.402;2022-10-16T09:24:53;9.38;;;1.42;;
41875;SDS011;27555;50.808;4.402;2022-10-16T09:27:24;3.92;;;1.20;;
41875;SDS011;27555;50.808;4.402;2022-10-16T09:29:51;4.70;;;1.23;;
41875;SDS011;27555;50.808;4.402;2022-10-16T09:32:18;1.83;;;1.00;;
41875;SDS011;27555;50.808;4.402;2022-10-16T09:34:47;7.15;;;1.13;;
41875;SDS011;27555;50.808;4.402;2022-10-16T09:37:17;6.82;;;0.95;;
41875;SDS011;27555;50.808;4.402;2022-10-16T09:39:45;5.55;;;1.13;;
41875;SDS011;27555;50.808;4.402;2022-10-16T09:42:27;6.13;;;1.38;;
41875;SDS011;27555;50.808;4.402;2022-10-16T09:44:56;3.42;;;1.10;;
41875;SDS011;27555;50.808;4.402;2022-10-16T09:47:23;4.55;;;1.30;;
41875;SDS011;27555;50.808;4.402;2022-10-16T09:49:51;5.75;;;1.17;;
41875;SDS011;27555;50.808;4.402;2022-10-16T09:52:27;3.97;;;1.20;;
41875;SDS011;27555;50.808;4.402;2022-10-16T09:54:54;6.15;;;1.20;;
41875;SDS011;27555;50.808;4.402;2022-10-16T09:57:21;5.88;;;1.02;;
41875;SDS011;27555;50.808;4.402;2022-10-16T10:00:08;5.20;;;1.08;;
41875;SDS011;27555;50.808;4.402;2022-10-16T10:02:34;6.13;;;1.55;;
41875;SDS011;27555;50.808;4.402;2022-10-16T10:05:03;4.18;;;0.75;;
41875;SDS011;27555;50.808;4.402;2022-10-16T10:07:31;3.60;;;0.80;;
41875;SDS011;27555;50.808;4.402;2022-10-16T10:10:01;3.95;;;1.30;;
41875;SDS011;27555;50.808;4.402;2022-10-16T10:12:29;5.47;;;0.93;;
41875;SDS011;27555;50.808;4.402;2022-10-16T10:15:05;3.17;;;0.80;;
41875;SDS011;27555;50.808;4.402;2022-10-16T10:17:47;5.72;;;1.02;;
41875;SDS011;27555;50.808;4.402;2022-10-16T10:20:23;3.60;;;0.93;;
41875;SDS011;27555;50.808;4.402;2022-10-16T10:22:52;4.57;;;1.20;;
41875;SDS011;27555;50.808;4.402;2022-10-16T10:25:23;3.45;;;1.10;;
41875;SDS011;27555;50.808;4.402;2022-10-16T10:33:37;4.82;;;1.10;;
41875;SDS011;27555;50.808;4.402;2022-10-16T10:36:38;4.68;;;1.05;;
41875;SDS011;27555;50.808;4.402;2022-10-16T10:39:09;4.25;;;0.90;;
41875;SDS011;27555;50.808;4.402;2022-10-16T10:53:24;4.22;;;0.93;;
41875;SDS011;27555;50.808;4.402;2022-10-16T10:56:20;7.05;;;1.10;;
41875;SDS011;27555;50.808;4.402;2022-10-16T11:01:56;1.77;;;0.80;;
41875;SDS011;27555;50.808;4.402;2022-10-16T11:07:02;4.72;;;0.63;;
41875;SDS011;27555;50.808;4.402;2022-10-16T11:09:42;2.00;;;0.82;;
41875;SDS011;27555;50.808;4.402;2022-10-16T11:14:50;1.65;;;0.60;;
41875;SDS011;27555;50.808;4.402;2022-10-16T11:17:23;2.20;;;0.80;;
41875;SDS011;27555;50.808;4.402;2022-10-16T11:19:56;4.30;;;1.33;;
41875;SDS011;27555;50.808;4.402;2022-10-16T11:22:38;5.38;;;1.40;;
41875;SDS011;27555;50.808;4.402;2022-10-16T11:25:30;3.83;;;0.75;;
41875;SDS011;27555;50.808;4.402;2022-10-16T11:30:27;1.45;;;0.50;;
41875;SDS011;27555;50.808;4.402;2022-10-16T11:33:02;2.13;;;0.68;;
41875;SDS011;27555;50.808;4.402;2022-10-16T11:35:53;2.50;;;1.00;;
41875;SDS011;27555;50.808;4.402;2022-10-16T11:44:27;2.22;;;0.63;;
41875;SDS011;27555;50.808;4.402;2022-10-16T11:47:05;2.63;;;0.65;;
41875;SDS011;27555;50.808;4.402;2022-10-16T11:49:44;4.22;;;0.70;;
41875;SDS011;27555;50.808;4.402;2022-10-16T11:55:01;4.75;;;1.05;;
41875;SDS011;27555;50.808;4.402;2022-10-16T11:57:35;4.88;;;0.70;;
41875;SDS011;27555;50.808;4.402;2022-10-16T12:05:52;3.05;;;0.50;;
41875;SDS011;27555;50.808;4.402;2022-10-16T12:08:39;6.35;;;0.80;;
41875;SDS011;27555;50.808;4.402;2022-10-16T12:11:09;3.15;;;0.90;;
41875;SDS011;27555;50.808;4.402;2022-10-16T12:14:17;5.28;;;0.60;;
41875;SDS011;27555;50.808;4.402;2022-10-16T12:17:22;3.92;;;1.17;;
41875;SDS011;27555;50.808;4.402;2022-10-16T12:20:41;3.05;;;0.50;;
41875;SDS011;27555;50.808;4.402;2022-10-16T12:23:21;2.10;;;0.60;;
41875;SDS011;27555;50.808;4.402;2022-10-16T12:26:00;4.97;;;1.23;;
41875;SDS011;27555;50.808;4.402;2022-10-16T12:28:33;4.40;;;0.70;;
41875;SDS011;27555;50.808;4.402;2022-10-16T12:31:06;1.92;;;0.70;;
41875;SDS011;27555;50.808;4.402;2022-10-16T12:33:36;1.27;;;0.52;;
41875;SDS011;27555;50.808;4.402;2022-10-16T12:36:05;1.83;;;0.70;;
41875;SDS011;27555;50.808;4.402;2022-10-16T12:38:47;5.35;;;0.68;;
41875;SDS011;27555;50.808;4.402;2022-10-16T12:41:29;5.65;;;0.80;;
41875;SDS011;27555;50.808;4.402;2022-10-16T12:44:00;2.53;;;0.52;;
41875;SDS011;27555;50.808;4.402;2022-10-16T12:49:19;2.65;;;0.57;;
41875;SDS011;27555;50.808;4.402;2022-10-16T12:52:03;3.33;;;0.70;;
41875;SDS011;27555;50.808;4.402;2022-10-16T12:54:36;3.25;;;0.98;;
41875;SDS011;27555;50.808;4.402;2022-10-16T13:07:56;4.72;;;1.10;;
41875;SDS011;27555;50.808;4.402;2022-10-16T13:13:32;3.35;;;0.98;;
41875;SDS011;27555;50.808;4.402;2022-10-16T13:16:29;4.95;;;0.95;;
41875;SDS011;27555;50.808;4.402;2022-10-16T13:19:22;3.05;;;0.90;;
41875;SDS011;27555;50.808;4.402;2022-10-16T13:22:23;2.97;;;0.70;;
41875;SDS011;27555;50.808;4.402;2022-10-16T13:30:23;3.70;;;0.70;;
41875;SDS011;27555;50.808;4.402;2022-10-16T13:32:55;2.67;;;0.73;;
41875;SDS011;27555;50.808;4.402;2022-10-16T13:35:47;1.52;;;0.52;;
41875;SDS011;27555;50.808;4.402;2022-10-16T13:38:19;6.93;;;1.13;;
41875;SDS011;27555;50.808;4.402;2022-10-16T13:40:48;4.63;;;0.70;;
41875;SDS011;27555;50.808;4.402;2022-10-16T13:43:32;3.33;;;0.88;;
41875;SDS011;27555;50.808;4.402;2022-10-16T13:46:02;2.67;;;0.52;;
41875;SDS011;27555;50.808;4.402;2022-10-16T13:48:30;2.55;;;0.50;;
41875;SDS011;27555;50.808;4.402;2022-10-16T13:51:01;4.28;;;0.77;;
41875;SDS011;27555;50.808;4.402;2022-10-16T13:53:27;2.15;;;0.70;;
41875;SDS011;27555;50.808;4.402;2022-10-16T13:55:55;4.70;;;0.63;;
41875;SDS011;27555;50.808;4.402;2022-10-16T13:58:21;4.78;;;1.00;;
41875;SDS011;27555;50.808;4.402;2022-10-16T14:00:57;3.03;;;1.13;;
41875;SDS011;27555;50.808;4.402;2022-10-16T14:03:25;5.88;;;1.17;;
41875;SDS011;27555;50.808;4.402;2022-10-16T14:05:53;4.13;;;0.98;;
41875;SDS011;27555;50.808;4.402;2022-10-16T14:08:20;2.28;;;0.57;;
41875;SDS011;27555;50.808;4.402;2022-10-16T14:10:51;1.83;;;0.90;;
41875;SDS011;27555;50.808;4.402;2022-10-16T14:13:21;3.20;;;1.00;;
41875;SDS011;27555;50.808;4.402;2022-10-16T14:15:59;4.32;;;1.23;;
41875;SDS011;27555;50.808;4.402;2022-10-16T14:18:47;4.18;;;1.40;;
41875;SDS011;27555;50.808;4.402;2022-10-16T14:21:20;6.30;;;3.03;;
41875;SDS011;27555;50.808;4.402;2022-10-16T14:23:47;6.88;;;1.20;;
41875;SDS011;27555;50.808;4.402;2022-10-16T14:26:14;3.72;;;1.00;;
41875;SDS011;27555;50.808;4.402;2022-10-16T14:28:41;3.75;;;0.88;;
41875;SDS011;27555;50.808;4.402;2022-10-16T14:31:28;5.47;;;1.02;;
41875;SDS011;27555;50.808;4.402;2022-10-16T14:33:56;5.93;;;1.00;;
41875;SDS011;27555;50.808;4.402;2022-10-16T14:36:22;8.15;;;1.75;;
41875;SDS011;27555;50.808;4.402;2022-10-16T14:41:31;3.65;;;1.23;;
41875;SDS011;27555;50.808;4.402;2022-10-16T14:44:05;3.47;;;1.00;;
41875;SDS011;27555;50.808;4.402;2022-10-16T14:46:38;6.55;;;1.40;;
41875;SDS011;27555;50.808;4.402;2022-10-16T14:51:36;4.30;;;1.63;;
41875;SDS011;27555;50.808;4.402;2022-10-16T14:54:03;3.38;;;1.30;;
41875;SDS011;27555;50.808;4.402;2022-10-16T14:56:31;7.10;;;1.60;;
41875;SDS011;27555;50.808;4.402;2022-10-16T14:59:29;5.28;;;1.48;;
41875;SDS011;27555;50.808;4.402;2022-10-16T15:04:56;7.70;;;3.75;;
41875;SDS011;27555;50.808;4.402;2022-10-16T15:07:23;13.00;;;5.57;;
41875;SDS011;27555;50.808;4.402;2022-10-16T15:09:49;4.47;;;1.60;;
41875;SDS011;27555;50.808;4.402;2022-10-16T15:12:15;4.63;;;1.63;;
41875;SDS011;27555;50.808;4.402;2022-10-16T15:14:41;5.18;;;1.85;;
41875;SDS011;27555;50.808;4.402;2022-10-16T15:17:10;11.52;;;4.50;;
41875;SDS011;27555;50.808;4.402;2022-10-16T15:19:36;7.13;;;1.30;;
41875;SDS011;27555;50.808;4.402;2022-10-16T15:22:02;6.47;;;1.00;;
41875;SDS011;27555;50.808;4.402;2022-10-16T15:24:27;4.32;;;1.50;;
41875;SDS011;27555;50.808;4.402;2022-10-16T15:26:53;3.92;;;1.42;;
41875;SDS011;27555;50.808;4.402;2022-10-16T15:29:18;7.95;;;2.75;;
41875;SDS011;27555;50.808;4.402;2022-10-16T15:31:44;11.55;;;6.22;;
41875;SDS011;27555;50.808;4.402;2022-10-16T15:34:12;16.13;;;6.07;;
41875;SDS011;27555;50.808;4.402;2022-10-16T15:36:38;19.40;;;7.88;;
41875;SDS011;27555;50.808;4.402;2022-10-16T15:39:15;8.88;;;3.95;;
41875;SDS011;27555;50.808;4.402;2022-10-16T15:41:42;10.75;;;5.68;;
41875;SDS011;27555;50.808;4.402;2022-10-16T15:44:09;13.32;;;5.80;;
41875;SDS011;27555;50.808;4.402;2022-10-16T15:46:35;15.82;;;8.25;;
41875;SDS011;27555;50.808;4.402;2022-10-16T15:49:02;17.05;;;10.93;;
41875;SDS011;27555;50.808;4.402;2022-10-16T15:51:28;18.40;;;6.75;;
41875;SDS011;27555;50.808;4.402;2022-10-16T15:53:55;7.80;;;3.65;;
41875;SDS011;27555;50.808;4.402;2022-10-16T15:56:22;11.10;;;3.95;;
41875;SDS011;27555;50.808;4.402;2022-10-16T15:58:50;7.53;;;2.83;;
41875;SDS011;27555;50.808;4.402;2022-10-16T16:01:16;4.97;;;2.00;;
41875;SDS011;27555;50.808;4.402;2022-10-16T16:03:42;8.15;;;2.80;;
41875;SDS011;27555;50.808;4.402;2022-10-16T16:06:08;5.55;;;2.20;;
41875;SDS011;27555;50.808;4.402;2022-10-16T16:08:36;4.40;;;2.58;;
41875;SDS011;27555;50.808;4.402;2022-10-16T16:13:32;9.85;;;4.00;;
41875;SDS011;27555;50.808;4.402;2022-10-16T16:15:58;9.13;;;1.85;;
41875;SDS011;27555;50.808;4.402;2022-10-16T16:18:24;5.68;;;1.92;;
41875;SDS011;27555;50.808;4.402;2022-10-16T16:20:50;4.03;;;1.77;;
41875;SDS011;27555;50.808;4.402;2022-10-16T16:23:16;4.72;;;1.55;;
41875;SDS011;27555;50.808;4.402;2022-10-16T16:25:44;4.95;;;2.38;;
41875;SDS011;27555;50.808;4.402;2022-10-16T16:28:09;8.40;;;1.90;;
41875;SDS011;27555;50.808;4.402;2022-10-16T16:30:39;8.90;;;4.80;;
41875;SDS011;27555;50.808;4.402;2022-10-16T16:33:04;4.90;;;2.50;;
41875;SDS011;27555;50.808;4.402;2022-10-16T16:35:30;7.35;;;2.83;;
41875;SDS011;27555;50.808;4.402;2022-10-16T16:37:56;6.00;;;2.33;;
41875;SDS011;27555;50.808;4.402;2022-10-16T16:40:21;11.55;;;4.97;;
41875;SDS011;27555;50.808;4.402;2022-10-16T16:42:47;11.38;;;4.45;;
41875;SDS011;27555;50.808;4.402;2022-10-16T16:45:13;11.32;;;3.58;;